sensor_id;sensor_type;location;lat;lon;timestamp;temperature;humidity
9723;DHT22;4900;49.306;8.500;2024-01-25T00:01:37;10.63;75.14
9723;DHT22;4900;49.306;8.500;2024-01-25T00:04:03;10.68;75.07
9723;DHT22;4900;49.306;8.500;2024-01-25T00:06:28;10.68;74.89
9723;DHT22;4900;49.306;8.500;2024-01-25T00:08:54;10.75;74.74
9723;DHT22;4900;49.306;8.500;2024-01-25T00:11:19;10.76;74.56
9723;DHT22;4900;49.306;8.500;2024-01-25T00:13:44;10.75;74.51
9723;DHT22;4900;49.306;8.500;2024-01-25T00:16:10;10.73;74.55
9723;DHT22;4900;49.306;8.500;2024-01-25T00:18:35;10.75;74.39
9723;DHT22;4900;49.306;8.500;2024-01-25T00:21:00;10.73;74.34
9723;DHT22;4900;49.306;8.500;2024-01-25T00:23:26;10.73;74.21
9723;DHT22;4900;49.306;8.500;2024-01-25T00:25:51;10.77;74.09
9723;DHT22;4900;49.306;8.500;2024-01-25T00:28:17;10.80;74.10
9723;DHT22;4900;49.306;8.500;2024-01-25T00:30:42;10.81;73.94
9723;DHT22;4900;49.306;8.500;2024-01-25T00:33:08;10.80;73.96
9723;DHT22;4900;49.306;8.500;2024-01-25T00:35:33;10.81;73.79
9723;DHT22;4900;49.306;8.500;2024-01-25T00:37:59;10.80;73.76
9723;DHT22;4900;49.306;8.500;2024-01-25T00:40:26;10.76;73.96
9723;DHT22;4900;49.306;8.500;2024-01-25T00:42:51;10.72;73.93
9723;DHT22;4900;49.306;8.500;2024-01-25T00:45:21;10.77;73.81
9723;DHT22;4900;49.306;8.500;2024-01-25T00:47:47;10.75;73.86
9723;DHT22;4900;49.306;8.500;2024-01-25T00:50:13;10.75;73.97
9723;DHT22;4900;49.306;8.500;2024-01-25T00:52:39;10.79;73.80
9723;DHT22;4900;49.306;8.500;2024-01-25T00:55:05;10.73;73.84
9723;DHT22;4900;49.306;8.500;2024-01-25T00:57:31;10.72;73.92
9723;DHT22;4900;49.306;8.500;2024-01-25T00:59:58;10.73;73.88
9723;DHT22;4900;49.306;8.500;2024-01-25T01:02:24;10.69;73.85
9723;DHT22;4900;49.306;8.500;2024-01-25T01:04:56;10.76;73.70
9723;DHT22;4900;49.306;8.500;2024-01-25T01:07:22;10.76;73.68
9723;DHT22;4900;49.306;8.500;2024-01-25T01:09:47;10.76;73.61
9723;DHT22;4900;49.306;8.500;2024-01-25T01:12:12;10.72;73.61
9723;DHT22;4900;49.306;8.500;2024-01-25T01:14:39;10.69;73.70
9723;DHT22;4900;49.306;8.500;2024-01-25T01:17:04;10.65;73.82
9723;DHT22;4900;49.306;8.500;2024-01-25T01:19:30;10.62;73.84
9723;DHT22;4900;49.306;8.500;2024-01-25T01:21:56;10.63;73.70
9723;DHT22;4900;49.306;8.500;2024-01-25T01:24:21;10.62;73.66
9723;DHT22;4900;49.306;8.500;2024-01-25T01:26:47;10.61;73.65
9723;DHT22;4900;49.306;8.500;2024-01-25T01:29:13;10.58;73.77
9723;DHT22;4900;49.306;8.500;2024-01-25T01:31:39;10.59;73.74
9723;DHT22;4900;49.306;8.500;2024-01-25T01:34:04;10.58;73.86
9723;DHT22;4900;49.306;8.500;2024-01-25T01:36:30;10.52;73.91
9723;DHT22;4900;49.306;8.500;2024-01-25T01:38:55;10.59;73.78
9723;DHT22;4900;49.306;8.500;2024-01-25T01:41:20;10.59;73.55
9723;DHT22;4900;49.306;8.500;2024-01-25T01:43:46;10.53;73.57
9723;DHT22;4900;49.306;8.500;2024-01-25T01:48:50;10.56;73.57
9723;DHT22;4900;49.306;8.500;2024-01-25T01:51:15;10.49;73.66
9723;DHT22;4900;49.306;8.500;2024-01-25T01:53:41;10.49;73.72
9723;DHT22;4900;49.306;8.500;2024-01-25T01:56:07;10.48;73.62
9723;DHT22;4900;49.306;8.500;2024-01-25T01:58:34;10.46;73.60
9723;DHT22;4900;49.306;8.500;2024-01-25T02:01:00;10.50;73.47
9723;DHT22;4900;49.306;8.500;2024-01-25T02:03:27;10.50;73.33
9723;DHT22;4900;49.306;8.500;2024-01-25T02:05:52;10.50;73.36
9723;DHT22;4900;49.306;8.500;2024-01-25T02:08:18;10.50;73.33
9723;DHT22;4900;49.306;8.500;2024-01-25T02:10:43;10.46;73.37
9723;DHT22;4900;49.306;8.500;2024-01-25T02:13:08;10.42;73.50
9723;DHT22;4900;49.306;8.500;2024-01-25T02:15:34;10.44;73.60
9723;DHT22;4900;49.306;8.500;2024-01-25T02:17:59;10.41;73.60
9723;DHT22;4900;49.306;8.500;2024-01-25T02:20:25;10.38;73.69
9723;DHT22;4900;49.306;8.500;2024-01-25T02:22:51;10.39;73.78
9723;DHT22;4900;49.306;8.500;2024-01-25T02:25:16;10.32;73.92
9723;DHT22;4900;49.306;8.500;2024-01-25T02:27:42;10.31;73.94
9723;DHT22;4900;49.306;8.500;2024-01-25T02:30:07;10.27;74.01
9723;DHT22;4900;49.306;8.500;2024-01-25T02:32:33;10.28;74.11
9723;DHT22;4900;49.306;8.500;2024-01-25T02:34:59;10.27;74.12
9723;DHT22;4900;49.306;8.500;2024-01-25T02:37:25;10.25;74.02
9723;DHT22;4900;49.306;8.500;2024-01-25T02:39:51;10.22;74.22
9723;DHT22;4900;49.306;8.500;2024-01-25T02:42:16;10.22;74.22
9723;DHT22;4900;49.306;8.500;2024-01-25T02:44:43;10.24;74.10
9723;DHT22;4900;49.306;8.500;2024-01-25T02:47:08;10.28;74.06
9723;DHT22;4900;49.306;8.500;2024-01-25T02:49:34;10.29;73.97
9723;DHT22;4900;49.306;8.500;2024-01-25T02:51:59;10.27;73.93
9723;DHT22;4900;49.306;8.500;2024-01-25T02:54:25;10.27;73.97
9723;DHT22;4900;49.306;8.500;2024-01-25T02:56:51;10.24;73.97
9723;DHT22;4900;49.306;8.500;2024-01-25T02:59:16;10.24;73.98
9723;DHT22;4900;49.306;8.500;2024-01-25T03:01:42;10.22;73.91
9723;DHT22;4900;49.306;8.500;2024-01-25T03:04:08;10.20;73.96
9723;DHT22;4900;49.306;8.500;2024-01-25T03:06:33;10.18;73.96
9723;DHT22;4900;49.306;8.500;2024-01-25T03:08:58;10.13;73.99
9723;DHT22;4900;49.306;8.500;2024-01-25T03:11:24;10.08;74.21
9723;DHT22;4900;49.306;8.500;2024-01-25T03:13:49;10.08;74.23
9723;DHT22;4900;49.306;8.500;2024-01-25T03:16:15;10.13;74.13
9723;DHT22;4900;49.306;8.500;2024-01-25T03:18:40;10.10;74.06
9723;DHT22;4900;49.306;8.500;2024-01-25T03:21:05;10.08;74.04
9723;DHT22;4900;49.306;8.500;2024-01-25T03:23:31;10.06;73.95
9723;DHT22;4900;49.306;8.500;2024-01-25T03:25:56;10.06;74.02
9723;DHT22;4900;49.306;8.500;2024-01-25T03:28:21;10.04;74.03
9723;DHT22;4900;49.306;8.500;2024-01-25T03:30:47;10.06;73.93
9723;DHT22;4900;49.306;8.500;2024-01-25T03:33:12;10.01;73.96
9723;DHT22;4900;49.306;8.500;2024-01-25T03:35:38;10.01;74.08
9723;DHT22;4900;49.306;8.500;2024-01-25T03:38:04;9.97;74.03
9723;DHT22;4900;49.306;8.500;2024-01-25T03:40:29;9.96;74.03
9723;DHT22;4900;49.306;8.500;2024-01-25T03:42:55;9.94;74.18
9723;DHT22;4900;49.306;8.500;2024-01-25T03:45:21;9.93;74.10
9723;DHT22;4900;49.306;8.500;2024-01-25T03:47:46;9.89;74.29
9723;DHT22;4900;49.306;8.500;2024-01-25T03:50:12;9.82;74.41
9723;DHT22;4900;49.306;8.500;2024-01-25T03:52:37;9.76;74.36
9723;DHT22;4900;49.306;8.500;2024-01-25T03:55:03;9.66;74.81
9723;DHT22;4900;49.306;8.500;2024-01-25T03:57:29;9.62;74.85
9723;DHT22;4900;49.306;8.500;2024-01-25T03:59:55;9.65;74.84
9723;DHT22;4900;49.306;8.500;2024-01-25T04:02:20;9.52;75.25
9723;DHT22;4900;49.306;8.500;2024-01-25T04:04:46;9.52;75.35
9723;DHT22;4900;49.306;8.500;2024-01-25T04:07:11;9.53;75.31
9723;DHT22;4900;49.306;8.500;2024-01-25T04:09:36;9.49;75.29
9723;DHT22;4900;49.306;8.500;2024-01-25T04:12:02;9.45;75.26
9723;DHT22;4900;49.306;8.500;2024-01-25T04:14:28;9.44;75.30
9723;DHT22;4900;49.306;8.500;2024-01-25T04:16:53;9.41;75.41
9723;DHT22;4900;49.306;8.500;2024-01-25T04:19:18;9.41;75.37
9723;DHT22;4900;49.306;8.500;2024-01-25T04:21:44;9.35;75.39
9723;DHT22;4900;49.306;8.500;2024-01-25T04:24:09;9.34;75.46
9723;DHT22;4900;49.306;8.500;2024-01-25T04:26:34;9.28;75.59
9723;DHT22;4900;49.306;8.500;2024-01-25T04:29:01;9.25;75.73
9723;DHT22;4900;49.306;8.500;2024-01-25T04:31:26;9.20;75.87
9723;DHT22;4900;49.306;8.500;2024-01-25T04:33:52;9.18;75.84
9723;DHT22;4900;49.306;8.500;2024-01-25T04:36:17;9.08;75.95
9723;DHT22;4900;49.306;8.500;2024-01-25T04:38:42;9.04;76.04
9723;DHT22;4900;49.306;8.500;2024-01-25T04:41:08;8.99;76.11
9723;DHT22;4900;49.306;8.500;2024-01-25T04:43:34;8.96;76.22
9723;DHT22;4900;49.306;8.500;2024-01-25T04:46:01;8.88;76.51
9723;DHT22;4900;49.306;8.500;2024-01-25T04:48:28;8.88;76.40
9723;DHT22;4900;49.306;8.500;2024-01-25T04:50:53;8.82;76.49
9723;DHT22;4900;49.306;8.500;2024-01-25T04:53:19;8.71;76.48
9723;DHT22;4900;49.306;8.500;2024-01-25T04:55:44;8.69;76.54
9723;DHT22;4900;49.306;8.500;2024-01-25T04:58:09;8.61;76.66
9723;DHT22;4900;49.306;8.500;2024-01-25T05:00:36;8.51;77.05
9723;DHT22;4900;49.306;8.500;2024-01-25T05:03:03;8.46;77.37
9723;DHT22;4900;49.306;8.500;2024-01-25T05:05:29;8.44;77.47
9723;DHT22;4900;49.306;8.500;2024-01-25T05:07:54;8.40;77.73
9723;DHT22;4900;49.306;8.500;2024-01-25T05:10:20;8.41;77.68
9723;DHT22;4900;49.306;8.500;2024-01-25T05:12:45;8.40;77.78
9723;DHT22;4900;49.306;8.500;2024-01-25T05:15:10;8.37;77.74
9723;DHT22;4900;49.306;8.500;2024-01-25T05:17:36;8.34;77.75
9723;DHT22;4900;49.306;8.500;2024-01-25T05:20:01;8.30;77.82
9723;DHT22;4900;49.306;8.500;2024-01-25T05:22:28;8.27;77.73
9723;DHT22;4900;49.306;8.500;2024-01-25T05:24:53;8.27;77.70
9723;DHT22;4900;49.306;8.500;2024-01-25T05:27:18;8.23;77.71
9723;DHT22;4900;49.306;8.500;2024-01-25T05:29:44;8.18;77.79
9723;DHT22;4900;49.306;8.500;2024-01-25T05:32:09;8.14;77.76
9723;DHT22;4900;49.306;8.500;2024-01-25T05:34:35;8.09;77.78
9723;DHT22;4900;49.306;8.500;2024-01-25T05:37:00;8.03;77.78
9723;DHT22;4900;49.306;8.500;2024-01-25T05:39:25;8.00;77.94
9723;DHT22;4900;49.306;8.500;2024-01-25T05:41:51;7.99;78.20
9723;DHT22;4900;49.306;8.500;2024-01-25T05:44:16;7.99;78.47
9723;DHT22;4900;49.306;8.500;2024-01-25T05:46:41;8.03;78.53
9723;DHT22;4900;49.306;8.500;2024-01-25T05:49:07;7.99;78.79
9723;DHT22;4900;49.306;8.500;2024-01-25T05:51:32;7.99;78.88
9723;DHT22;4900;49.306;8.500;2024-01-25T05:53:58;7.96;78.90
9723;DHT22;4900;49.306;8.500;2024-01-25T05:56:23;7.96;79.06
9723;DHT22;4900;49.306;8.500;2024-01-25T05:58:49;7.96;79.02
9723;DHT22;4900;49.306;8.500;2024-01-25T06:01:14;7.99;78.96
9723;DHT22;4900;49.306;8.500;2024-01-25T06:03:39;7.96;79.02
9723;DHT22;4900;49.306;8.500;2024-01-25T06:06:05;7.93;79.02
9723;DHT22;4900;49.306;8.500;2024-01-25T06:08:33;7.93;79.08
9723;DHT22;4900;49.306;8.500;2024-01-25T06:10:58;7.90;79.08
9723;DHT22;4900;49.306;8.500;2024-01-25T06:13:24;7.86;79.24
9723;DHT22;4900;49.306;8.500;2024-01-25T06:15:49;7.90;79.12
9723;DHT22;4900;49.306;8.500;2024-01-25T06:18:14;7.86;79.11
9723;DHT22;4900;49.306;8.500;2024-01-25T06:20:40;7.86;79.15
9723;DHT22;4900;49.306;8.500;2024-01-25T06:23:05;7.86;79.16
9723;DHT22;4900;49.306;8.500;2024-01-25T06:25:30;7.81;79.23
9723;DHT22;4900;49.306;8.500;2024-01-25T06:27:57;7.79;79.35
9723;DHT22;4900;49.306;8.500;2024-01-25T06:30:22;7.77;79.57
9723;DHT22;4900;49.306;8.500;2024-01-25T06:32:48;7.79;79.57
9723;DHT22;4900;49.306;8.500;2024-01-25T06:35:14;7.78;79.71
9723;DHT22;4900;49.306;8.500;2024-01-25T06:37:39;7.75;79.77
9723;DHT22;4900;49.306;8.500;2024-01-25T06:40:06;7.81;79.60
9723;DHT22;4900;49.306;8.500;2024-01-25T06:42:32;7.82;79.47
9723;DHT22;4900;49.306;8.500;2024-01-25T06:44:57;7.81;79.36
9723;DHT22;4900;49.306;8.500;2024-01-25T06:47:23;7.75;79.38
9723;DHT22;4900;49.306;8.500;2024-01-25T06:49:48;7.74;79.43
9723;DHT22;4900;49.306;8.500;2024-01-25T06:52:19;7.71;79.39
9723;DHT22;4900;49.306;8.500;2024-01-25T06:54:44;7.68;79.39
9723;DHT22;4900;49.306;8.500;2024-01-25T06:57:10;7.66;79.46
9723;DHT22;4900;49.306;8.500;2024-01-25T06:59:35;7.63;79.41
9723;DHT22;4900;49.306;8.500;2024-01-25T07:02:01;7.62;79.48
9723;DHT22;4900;49.306;8.500;2024-01-25T07:04:28;7.61;79.47
9723;DHT22;4900;49.306;8.500;2024-01-25T07:06:54;7.61;79.60
9723;DHT22;4900;49.306;8.500;2024-01-25T07:09:20;7.59;79.68
9723;DHT22;4900;49.306;8.500;2024-01-25T07:11:45;7.56;79.77
9723;DHT22;4900;49.306;8.500;2024-01-25T07:14:11;7.56;79.91
9723;DHT22;4900;49.306;8.500;2024-01-25T07:16:36;7.54;79.99
9723;DHT22;4900;49.306;8.500;2024-01-25T07:19:01;7.58;79.95
9723;DHT22;4900;49.306;8.500;2024-01-25T07:21:28;7.62;79.86
9723;DHT22;4900;49.306;8.500;2024-01-25T07:23:53;7.63;79.83
9723;DHT22;4900;49.306;8.500;2024-01-25T07:26:19;7.61;79.93
9723;DHT22;4900;49.306;8.500;2024-01-25T07:28:44;7.62;79.83
9723;DHT22;4900;49.306;8.500;2024-01-25T07:31:11;7.66;79.89
9723;DHT22;4900;49.306;8.500;2024-01-25T07:33:36;7.69;79.80
9723;DHT22;4900;49.306;8.500;2024-01-25T07:36:02;7.72;79.71
9723;DHT22;4900;49.306;8.500;2024-01-25T07:38:28;7.71;79.69
9723;DHT22;4900;49.306;8.500;2024-01-25T07:40:53;7.77;79.61
9723;DHT22;4900;49.306;8.500;2024-01-25T07:43:19;7.79;79.61
9723;DHT22;4900;49.306;8.500;2024-01-25T07:45:45;7.78;79.63
9723;DHT22;4900;49.306;8.500;2024-01-25T07:48:10;7.78;79.77
9723;DHT22;4900;49.306;8.500;2024-01-25T07:50:35;7.81;79.86
9723;DHT22;4900;49.306;8.500;2024-01-25T07:53:01;7.83;79.76
9723;DHT22;4900;49.306;8.500;2024-01-25T07:55:27;7.88;79.63
9723;DHT22;4900;49.306;8.500;2024-01-25T07:57:55;7.90;79.58
9723;DHT22;4900;49.306;8.500;2024-01-25T08:00:20;7.93;79.39
9723;DHT22;4900;49.306;8.500;2024-01-25T08:02:45;7.95;79.43
9723;DHT22;4900;49.306;8.500;2024-01-25T08:05:11;7.98;79.40
9723;DHT22;4900;49.306;8.500;2024-01-25T08:07:37;8.00;79.36
9723;DHT22;4900;49.306;8.500;2024-01-25T08:10:04;8.02;79.31
9723;DHT22;4900;49.306;8.500;2024-01-25T08:12:29;8.05;79.23
9723;DHT22;4900;49.306;8.500;2024-01-25T08:14:56;8.07;79.13
9723;DHT22;4900;49.306;8.500;2024-01-25T08:17:21;8.07;79.09
9723;DHT22;4900;49.306;8.500;2024-01-25T08:19:47;8.12;79.14
9723;DHT22;4900;49.306;8.500;2024-01-25T08:22:12;8.16;79.09
9723;DHT22;4900;49.306;8.500;2024-01-25T08:24:40;8.14;79.15
9723;DHT22;4900;49.306;8.500;2024-01-25T08:27:06;8.13;79.29
9723;DHT22;4900;49.306;8.500;2024-01-25T08:29:33;8.13;79.60
9723;DHT22;4900;49.306;8.500;2024-01-25T08:31:59;8.18;79.61
9723;DHT22;4900;49.306;8.500;2024-01-25T08:34:25;8.20;79.69
9723;DHT22;4900;49.306;8.500;2024-01-25T08:36:50;8.24;79.72
9723;DHT22;4900;49.306;8.500;2024-01-25T08:39:15;8.27;79.75
9723;DHT22;4900;49.306;8.500;2024-01-25T08:41:41;8.33;79.75
9723;DHT22;4900;49.306;8.500;2024-01-25T08:44:07;8.38;79.68
9723;DHT22;4900;49.306;8.500;2024-01-25T08:46:33;8.45;79.45
9723;DHT22;4900;49.306;8.500;2024-01-25T08:48:58;8.46;79.49
9723;DHT22;4900;49.306;8.500;2024-01-25T08:51:24;8.48;79.41
9723;DHT22;4900;49.306;8.500;2024-01-25T08:53:49;8.56;79.30
9723;DHT22;4900;49.306;8.500;2024-01-25T08:56:16;8.55;79.36
9723;DHT22;4900;49.306;8.500;2024-01-25T08:58:42;8.59;79.61
9723;DHT22;4900;49.306;8.500;2024-01-25T09:01:07;8.72;79.40
9723;DHT22;4900;49.306;8.500;2024-01-25T09:03:33;8.79;79.18
9723;DHT22;4900;49.306;8.500;2024-01-25T09:05:58;8.83;79.18
9723;DHT22;4900;49.306;8.500;2024-01-25T09:08:30;8.88;78.98
9723;DHT22;4900;49.306;8.500;2024-01-25T09:10:55;8.93;78.97
9723;DHT22;4900;49.306;8.500;2024-01-25T09:13:21;8.99;78.82
9723;DHT22;4900;49.306;8.500;2024-01-25T09:15:46;9.07;78.69
9723;DHT22;4900;49.306;8.500;2024-01-25T09:18:12;9.13;78.48
9723;DHT22;4900;49.306;8.500;2024-01-25T09:20:37;9.20;78.52
9723;DHT22;4900;49.306;8.500;2024-01-25T09:23:03;9.27;78.42
9723;DHT22;4900;49.306;8.500;2024-01-25T09:25:28;9.32;78.36
9723;DHT22;4900;49.306;8.500;2024-01-25T09:27:54;9.38;78.23
9723;DHT22;4900;49.306;8.500;2024-01-25T09:30:19;9.46;78.14
9723;DHT22;4900;49.306;8.500;2024-01-25T09:32:45;9.45;78.18
9723;DHT22;4900;49.306;8.500;2024-01-25T09:35:10;9.53;78.19
9723;DHT22;4900;49.306;8.500;2024-01-25T09:37:35;9.65;77.94
9723;DHT22;4900;49.306;8.500;2024-01-25T09:40:01;9.74;77.86
9723;DHT22;4900;49.306;8.500;2024-01-25T09:42:29;9.83;77.62
9723;DHT22;4900;49.306;8.500;2024-01-25T09:44:54;9.90;77.65
9723;DHT22;4900;49.306;8.500;2024-01-25T09:47:21;10.07;77.45
9723;DHT22;4900;49.306;8.500;2024-01-25T09:49:46;10.31;77.04
9723;DHT22;4900;49.306;8.500;2024-01-25T09:52:13;10.50;76.54
9723;DHT22;4900;49.306;8.500;2024-01-25T09:54:39;10.68;75.95
9723;DHT22;4900;49.306;8.500;2024-01-25T09:57:15;10.94;75.03
9723;DHT22;4900;49.306;8.500;2024-01-25T09:59:44;11.26;74.66
9723;DHT22;4900;49.306;8.500;2024-01-25T10:02:10;11.60;74.00
9723;DHT22;4900;49.306;8.500;2024-01-25T10:04:36;11.43;73.23
9723;DHT22;4900;49.306;8.500;2024-01-25T10:07:01;11.76;72.89
9723;DHT22;4900;49.306;8.500;2024-01-25T10:09:27;11.88;72.01
9723;DHT22;4900;49.306;8.500;2024-01-25T10:11:52;12.02;71.97
9723;DHT22;4900;49.306;8.500;2024-01-25T10:14:18;12.17;71.47
9723;DHT22;4900;49.306;8.500;2024-01-25T10:16:45;12.25;70.73
9723;DHT22;4900;49.306;8.500;2024-01-25T10:19:11;12.36;70.04
9723;DHT22;4900;49.306;8.500;2024-01-25T10:21:37;12.60;69.83
9723;DHT22;4900;49.306;8.500;2024-01-25T10:24:05;12.83;68.93
9723;DHT22;4900;49.306;8.500;2024-01-25T10:26:31;13.12;68.57
9723;DHT22;4900;49.306;8.500;2024-01-25T10:28:57;13.31;68.14
9723;DHT22;4900;49.306;8.500;2024-01-25T10:31:23;13.49;67.52
9723;DHT22;4900;49.306;8.500;2024-01-25T10:33:52;13.46;66.23
9723;DHT22;4900;49.306;8.500;2024-01-25T10:36:21;13.66;66.45
9723;DHT22;4900;49.306;8.500;2024-01-25T10:38:53;13.73;65.41
9723;DHT22;4900;49.306;8.500;2024-01-25T10:41:19;13.88;65.48
9723;DHT22;4900;49.306;8.500;2024-01-25T10:43:44;13.97;65.22
9723;DHT22;4900;49.306;8.500;2024-01-25T10:46:10;14.22;65.08
9723;DHT22;4900;49.306;8.500;2024-01-25T10:48:37;14.44;65.33
9723;DHT22;4900;49.306;8.500;2024-01-25T10:51:02;14.57;63.61
9723;DHT22;4900;49.306;8.500;2024-01-25T10:53:31;14.57;62.52
9723;DHT22;4900;49.306;8.500;2024-01-25T10:55:57;14.57;63.75
9723;DHT22;4900;49.306;8.500;2024-01-25T10:58:23;14.46;63.04
9723;DHT22;4900;49.306;8.500;2024-01-25T11:00:54;14.39;63.52
9723;DHT22;4900;49.306;8.500;2024-01-25T11:03:25;14.52;63.31
9723;DHT22;4900;49.306;8.500;2024-01-25T11:05:51;14.66;63.45
9723;DHT22;4900;49.306;8.500;2024-01-25T11:08:20;14.70;63.63
9723;DHT22;4900;49.306;8.500;2024-01-25T11:10:52;14.81;63.76
9723;DHT22;4900;49.306;8.500;2024-01-25T11:13:25;14.88;63.76
9723;DHT22;4900;49.306;8.500;2024-01-25T11:15:51;14.92;63.33
9723;DHT22;4900;49.306;8.500;2024-01-25T11:18:16;14.91;62.28
9723;DHT22;4900;49.306;8.500;2024-01-25T11:20:42;14.83;61.34
9723;DHT22;4900;49.306;8.500;2024-01-25T11:23:07;14.85;61.04
9723;DHT22;4900;49.306;8.500;2024-01-25T11:25:37;15.02;61.10
9723;DHT22;4900;49.306;8.500;2024-01-25T11:28:04;15.35;61.65
9723;DHT22;4900;49.306;8.500;2024-01-25T11:30:32;15.51;61.05
9723;DHT22;4900;49.306;8.500;2024-01-25T11:32:59;15.73;60.00
9723;DHT22;4900;49.306;8.500;2024-01-25T11:35:24;15.84;60.12
9723;DHT22;4900;49.306;8.500;2024-01-25T11:37:50;16.02;58.78
9723;DHT22;4900;49.306;8.500;2024-01-25T11:40:19;16.13;58.84
9723;DHT22;4900;49.306;8.500;2024-01-25T11:42:48;16.15;58.86
9723;DHT22;4900;49.306;8.500;2024-01-25T11:45:13;16.21;58.90
9723;DHT22;4900;49.306;8.500;2024-01-25T11:47:40;16.29;59.25
9723;DHT22;4900;49.306;8.500;2024-01-25T11:50:08;16.34;59.78
9723;DHT22;4900;49.306;8.500;2024-01-25T11:52:34;16.53;58.64
9723;DHT22;4900;49.306;8.500;2024-01-25T11:55:07;16.68;59.34
9723;DHT22;4900;49.306;8.500;2024-01-25T11:57:42;16.79;58.76
9723;DHT22;4900;49.306;8.500;2024-01-25T12:00:10;16.89;57.80
9723;DHT22;4900;49.306;8.500;2024-01-25T12:02:38;16.95;58.12
9723;DHT22;4900;49.306;8.500;2024-01-25T12:05:04;16.89;57.22
9723;DHT22;4900;49.306;8.500;2024-01-25T12:07:31;16.61;56.67
9723;DHT22;4900;49.306;8.500;2024-01-25T12:10:07;16.40;56.81
9723;DHT22;4900;49.306;8.500;2024-01-25T12:12:36;16.15;57.22
9723;DHT22;4900;49.306;8.500;2024-01-25T12:15:04;16.30;57.79
9723;DHT22;4900;49.306;8.500;2024-01-25T12:17:30;16.41;57.85
9723;DHT22;4900;49.306;8.500;2024-01-25T12:19:57;16.61;58.57
9723;DHT22;4900;49.306;8.500;2024-01-25T12:22:24;16.89;59.14
9723;DHT22;4900;49.306;8.500;2024-01-25T12:24:53;16.95;56.82
9723;DHT22;4900;49.306;8.500;2024-01-25T12:27:23;17.08;56.81
9723;DHT22;4900;49.306;8.500;2024-01-25T12:29:50;17.06;57.33
9723;DHT22;4900;49.306;8.500;2024-01-25T12:32:16;16.95;56.19
9723;DHT22;4900;49.306;8.500;2024-01-25T12:34:52;16.95;56.32
9723;DHT22;4900;49.306;8.500;2024-01-25T12:37:18;16.87;56.55
9723;DHT22;4900;49.306;8.500;2024-01-25T12:39:43;16.83;56.99
9723;DHT22;4900;49.306;8.500;2024-01-25T12:42:08;16.87;57.23
9723;DHT22;4900;49.306;8.500;2024-01-25T12:44:34;16.69;56.62
9723;DHT22;4900;49.306;8.500;2024-01-25T12:46:59;16.65;56.87
9723;DHT22;4900;49.306;8.500;2024-01-25T12:49:27;16.79;57.15
9723;DHT22;4900;49.306;8.500;2024-01-25T12:51:54;16.81;56.85
9723;DHT22;4900;49.306;8.500;2024-01-25T12:54:20;16.96;57.40
9723;DHT22;4900;49.306;8.500;2024-01-25T12:56:45;17.05;57.69
9723;DHT22;4900;49.306;8.500;2024-01-25T12:59:10;17.02;56.86
9723;DHT22;4900;49.306;8.500;2024-01-25T13:01:36;17.06;57.32
9723;DHT22;4900;49.306;8.500;2024-01-25T13:04:02;17.01;56.77
9723;DHT22;4900;49.306;8.500;2024-01-25T13:06:27;16.79;56.69
9723;DHT22;4900;49.306;8.500;2024-01-25T13:08:53;16.88;56.26
9723;DHT22;4900;49.306;8.500;2024-01-25T13:11:18;16.74;56.34
9723;DHT22;4900;49.306;8.500;2024-01-25T13:13:44;16.63;56.12
9723;DHT22;4900;49.306;8.500;2024-01-25T13:16:10;16.51;56.57
9723;DHT22;4900;49.306;8.500;2024-01-25T13:18:35;16.44;57.02
9723;DHT22;4900;49.306;8.500;2024-01-25T13:21:01;16.30;57.02
9723;DHT22;4900;49.306;8.500;2024-01-25T13:23:26;16.18;57.23
9723;DHT22;4900;49.306;8.500;2024-01-25T13:25:52;16.05;57.33
9723;DHT22;4900;49.306;8.500;2024-01-25T13:28:17;16.04;57.76
9723;DHT22;4900;49.306;8.500;2024-01-25T13:30:42;16.08;57.55
9723;DHT22;4900;49.306;8.500;2024-01-25T13:33:08;16.08;57.67
9723;DHT22;4900;49.306;8.500;2024-01-25T13:35:33;16.11;57.73
9723;DHT22;4900;49.306;8.500;2024-01-25T13:37:58;16.05;57.66
9723;DHT22;4900;49.306;8.500;2024-01-25T13:40:26;16.05;57.83
9723;DHT22;4900;49.306;8.500;2024-01-25T13:42:52;15.99;57.59
9723;DHT22;4900;49.306;8.500;2024-01-25T13:45:17;15.71;57.23
9723;DHT22;4900;49.306;8.500;2024-01-25T13:47:43;15.85;57.41
9723;DHT22;4900;49.306;8.500;2024-01-25T13:50:08;15.81;57.19
9723;DHT22;4900;49.306;8.500;2024-01-25T13:52:34;15.78;57.44
9723;DHT22;4900;49.306;8.500;2024-01-25T13:54:59;15.71;57.51
9723;DHT22;4900;49.306;8.500;2024-01-25T13:57:27;15.67;58.22
9723;DHT22;4900;49.306;8.500;2024-01-25T13:59:53;15.70;58.66
9723;DHT22;4900;49.306;8.500;2024-01-25T14:02:18;15.60;58.22
9723;DHT22;4900;49.306;8.500;2024-01-25T14:04:44;15.54;58.02
9723;DHT22;4900;49.306;8.500;2024-01-25T14:07:09;15.54;57.80
9723;DHT22;4900;49.306;8.500;2024-01-25T14:09:35;15.53;57.77
9723;DHT22;4900;49.306;8.500;2024-01-25T14:12:00;15.54;58.02
9723;DHT22;4900;49.306;8.500;2024-01-25T14:14:26;15.66;58.07
9723;DHT22;4900;49.306;8.500;2024-01-25T14:16:51;15.71;58.48
9723;DHT22;4900;49.306;8.500;2024-01-25T14:19:16;15.67;58.53
9723;DHT22;4900;49.306;8.500;2024-01-25T14:21:42;15.68;58.50
9723;DHT22;4900;49.306;8.500;2024-01-25T14:24:08;15.61;58.62
9723;DHT22;4900;49.306;8.500;2024-01-25T14:26:33;15.61;58.86
9723;DHT22;4900;49.306;8.500;2024-01-25T14:28:59;15.47;58.69
9723;DHT22;4900;49.306;8.500;2024-01-25T14:31:24;15.28;58.98
9723;DHT22;4900;49.306;8.500;2024-01-25T14:33:50;15.12;59.18
9723;DHT22;4900;49.306;8.500;2024-01-25T14:36:15;14.99;59.41
9723;DHT22;4900;49.306;8.500;2024-01-25T14:38:41;14.88;59.80
9723;DHT22;4900;49.306;8.500;2024-01-25T14:41:10;14.69;60.01
9723;DHT22;4900;49.306;8.500;2024-01-25T14:43:37;14.53;60.43
9723;DHT22;4900;49.306;8.500;2024-01-25T14:46:04;14.49;60.73
9723;DHT22;4900;49.306;8.500;2024-01-25T14:48:30;14.40;60.89
9723;DHT22;4900;49.306;8.500;2024-01-25T14:50:55;14.34;61.18
9723;DHT22;4900;49.306;8.500;2024-01-25T14:53:21;14.08;61.61
9723;DHT22;4900;49.306;8.500;2024-01-25T14:55:47;14.11;61.69
9723;DHT22;4900;49.306;8.500;2024-01-25T14:58:12;14.05;61.81
9723;DHT22;4900;49.306;8.500;2024-01-25T15:00:40;13.91;62.24
9723;DHT22;4900;49.306;8.500;2024-01-25T15:03:06;13.91;62.32
9723;DHT22;4900;49.306;8.500;2024-01-25T15:05:32;13.86;62.46
9723;DHT22;4900;49.306;8.500;2024-01-25T15:07:57;13.81;62.66
9723;DHT22;4900;49.306;8.500;2024-01-25T15:10:24;13.76;62.89
9723;DHT22;4900;49.306;8.500;2024-01-25T15:12:49;13.73;63.06
9723;DHT22;4900;49.306;8.500;2024-01-25T15:15:19;13.60;63.43
9723;DHT22;4900;49.306;8.500;2024-01-25T15:17:44;13.53;63.73
9723;DHT22;4900;49.306;8.500;2024-01-25T15:20:10;13.46;63.81
9723;DHT22;4900;49.306;8.500;2024-01-25T15:22:36;13.47;63.90
9723;DHT22;4900;49.306;8.500;2024-01-25T15:25:03;13.43;64.07
9723;DHT22;4900;49.306;8.500;2024-01-25T15:27:29;13.35;64.37
9723;DHT22;4900;49.306;8.500;2024-01-25T15:29:54;13.33;64.47
9723;DHT22;4900;49.306;8.500;2024-01-25T15:32:20;13.24;64.84
9723;DHT22;4900;49.306;8.500;2024-01-25T15:34:45;13.21;65.09
9723;DHT22;4900;49.306;8.500;2024-01-25T15:37:12;13.05;65.42
9723;DHT22;4900;49.306;8.500;2024-01-25T15:39:37;13.07;65.52
9723;DHT22;4900;49.306;8.500;2024-01-25T15:42:03;13.03;65.59
9723;DHT22;4900;49.306;8.500;2024-01-25T15:44:28;12.97;65.66
9723;DHT22;4900;49.306;8.500;2024-01-25T15:46:54;12.97;65.76
9723;DHT22;4900;49.306;8.500;2024-01-25T15:49:21;12.90;65.92
9723;DHT22;4900;49.306;8.500;2024-01-25T15:51:48;12.87;66.03
9723;DHT22;4900;49.306;8.500;2024-01-25T15:54:14;12.81;66.15
9723;DHT22;4900;49.306;8.500;2024-01-25T15:56:39;12.76;66.34
9723;DHT22;4900;49.306;8.500;2024-01-25T15:59:05;12.70;66.46
9723;DHT22;4900;49.306;8.500;2024-01-25T16:01:30;12.66;66.62